createdAt,value
2019-04-30T00:00:19.355Z,1014.07
2019-04-30T00:01:19.376Z,1014.05
2019-04-30T00:02:19.341Z,1014.05
2019-04-30T00:03:19.756Z,1014.09
2019-04-30T00:04:19.310Z,1014.05
2019-04-30T00:05:19.305Z,1014.03
2019-04-30T00:06:19.289Z,1014.03
2019-04-30T00:07:19.376Z,1014.02
2019-04-30T00:08:19.270Z,1013.97
2019-04-30T00:09:19.338Z,1013.97
2019-04-30T00:10:19.246Z,1013.97
2019-04-30T00:11:19.613Z,1013.93
2019-04-30T00:12:19.246Z,1013.95
2019-04-30T00:13:20.990Z,1013.92
2019-04-30T00:14:19.204Z,1013.93
2019-04-30T00:15:19.684Z,1013.90
2019-04-30T00:16:19.184Z,1013.91
2019-04-30T00:17:19.739Z,1013.88
2019-04-30T00:18:19.188Z,1013.85
2019-04-30T00:19:19.856Z,1013.85
2019-04-30T00:20:19.148Z,1013.83
2019-04-30T00:21:19.129Z,1013.84
2019-04-30T00:22:30.988Z,1013.82
2019-04-30T00:23:22.616Z,1013.84
2019-04-30T00:24:20.085Z,1013.80
2019-04-30T00:25:19.632Z,1013.77
2019-04-30T00:26:19.065Z,1013.83
2019-04-30T00:27:21.061Z,1013.82
2019-04-30T00:28:20.072Z,1013.82
2019-04-30T00:29:26.468Z,1013.81
2019-04-30T00:30:20.026Z,1013.77
2019-04-30T00:31:23.781Z,1013.77
2019-04-30T00:32:20.003Z,1013.80
2019-04-30T00:33:22.147Z,1013.77
2019-04-30T00:34:18.984Z,1013.75
2019-04-30T00:35:19.752Z,1013.73
2019-04-30T00:36:18.953Z,1013.75
2019-04-30T00:37:19.092Z,1013.73
2019-04-30T00:38:19.287Z,1013.74
2019-04-30T00:39:18.936Z,1013.70
2019-04-30T00:40:21.723Z,1013.73
2019-04-30T00:41:19.895Z,1013.74
2019-04-30T00:42:24.293Z,1013.74
2019-04-30T00:43:19.918Z,1013.74
2019-04-30T00:44:19.822Z,1013.75
2019-04-30T00:45:19.854Z,1013.74
2019-04-30T00:46:25.629Z,1013.72
2019-04-30T00:47:19.828Z,1013.74
2019-04-30T00:48:26.856Z,1013.72
2019-04-30T00:49:23.414Z,1013.67
2019-04-30T00:50:19.805Z,1013.72
2019-04-30T00:51:21.298Z,1013.73
2019-04-30T00:52:18.792Z,1013.70
2019-04-30T00:53:18.769Z,1013.71
2019-04-30T00:54:22.339Z,1013.68
2019-04-30T00:55:19.749Z,1013.70
2019-04-30T00:56:19.831Z,1013.70
2019-04-30T00:57:18.743Z,1013.70
2019-04-30T00:58:24.847Z,1013.69
2019-04-30T00:59:19.723Z,1013.70
2019-04-30T01:00:25.104Z,1013.69
2019-04-30T01:01:19.679Z,1013.70
2019-04-30T01:02:27.922Z,1013.68
2019-04-30T01:03:19.649Z,1013.73
2019-04-30T01:04:19.389Z,1013.68
2019-04-30T01:05:18.715Z,1013.66
2019-04-30T01:06:26.872Z,1013.64
2019-04-30T01:07:19.621Z,1013.69
2019-04-30T01:08:21.165Z,1013.65
2019-04-30T01:09:19.598Z,1013.70
2019-04-30T01:10:19.676Z,1013.63
2019-04-30T01:11:19.567Z,1013.66
2019-04-30T01:12:27.723Z,1013.66
2019-04-30T01:13:19.549Z,1013.63
2019-04-30T01:14:18.944Z,1013.64
2019-04-30T01:15:19.067Z,1013.72
2019-04-30T01:16:19.530Z,1013.66
2019-04-30T01:17:18.859Z,1013.70
2019-04-30T01:18:19.389Z,1013.71
2019-04-30T01:19:29.597Z,1013.72
2019-04-30T01:20:19.571Z,1013.69
2019-04-30T01:21:18.584Z,1013.63
2019-04-30T01:22:21.574Z,1013.68
2019-04-30T01:23:19.588Z,1013.70
2019-04-30T01:24:19.050Z,1013.66
2019-04-30T01:25:18.745Z,1013.67
2019-04-30T01:26:18.736Z,1013.62
2019-04-30T01:27:18.834Z,1013.61
2019-04-30T01:28:22.732Z,1013.59
2019-04-30T01:29:19.390Z,1013.63
2019-04-30T01:30:22.563Z,1013.62
2019-04-30T01:31:18.732Z,1013.61
2019-04-30T01:32:20.934Z,1013.60
2019-04-30T01:33:19.170Z,1013.61
2019-04-30T01:34:19.610Z,1013.64
2019-04-30T01:35:19.137Z,1013.58
2019-04-30T01:36:19.284Z,1013.59
2019-04-30T01:37:20.340Z,1013.62
2019-04-30T01:38:19.267Z,1013.59
2019-04-30T01:39:19.533Z,1013.63
2019-04-30T01:40:18.957Z,1013.56
2019-04-30T01:41:20.298Z,1013.60
2019-04-30T01:42:19.216Z,1013.59
2019-04-30T01:43:23.208Z,1013.55
2019-04-30T01:44:19.521Z,1013.55
2019-04-30T01:45:18.763Z,1013.55
2019-04-30T01:46:19.234Z,1013.60
2019-04-30T01:47:21.524Z,1013.56
2019-04-30T01:48:19.426Z,1013.56
2019-04-30T01:49:20.077Z,1013.57
2019-04-30T01:50:19.403Z,1013.58
2019-04-30T01:51:21.689Z,1013.61
2019-04-30T01:52:19.398Z,1013.64
2019-04-30T01:53:18.589Z,1013.63
2019-04-30T01:54:24.039Z,1013.60
2019-04-30T01:55:19.720Z,1013.59
2019-04-30T01:56:19.178Z,1013.61
2019-04-30T01:57:19.293Z,1013.57
2019-04-30T01:58:19.301Z,1013.56
2019-04-30T01:59:19.047Z,1013.56
2019-04-30T02:00:19.538Z,1013.56
2019-04-30T02:01:19.023Z,1013.56
2019-04-30T02:02:18.556Z,1013.59
2019-04-30T02:03:19.322Z,1013.56
2019-04-30T02:04:19.585Z,1013.59
2019-04-30T02:05:18.877Z,1013.53
2019-04-30T02:06:19.669Z,1013.54
2019-04-30T02:07:19.061Z,1013.54
2019-04-30T02:08:19.530Z,1013.59
2019-04-30T02:09:18.838Z,1013.60
2019-04-30T02:10:18.626Z,1013.62
2019-04-30T02:11:19.002Z,1013.63
2019-04-30T02:12:21.657Z,1013.61
2019-04-30T02:13:18.885Z,1013.58
2019-04-30T02:14:18.961Z,1013.61
2019-04-30T02:15:19.248Z,1013.61
2019-04-30T02:16:20.765Z,1013.66
2019-04-30T02:17:19.266Z,1013.62
2019-04-30T02:18:19.474Z,1013.64
2019-04-30T02:19:18.838Z,1013.66
2019-04-30T02:20:18.592Z,1013.64
2019-04-30T02:21:19.472Z,1013.60
2019-04-30T02:22:18.950Z,1013.65
2019-04-30T02:23:19.551Z,1013.63
2019-04-30T02:24:19.191Z,1013.60
2019-04-30T02:25:19.460Z,1013.66
2019-04-30T02:26:18.696Z,1013.63
2019-04-30T02:27:19.121Z,1013.63
2019-04-30T02:28:18.938Z,1013.63
2019-04-30T02:29:19.127Z,1013.67
2019-04-30T02:30:20.563Z,1013.66
2019-04-30T02:31:22.356Z,1013.65
2019-04-30T02:32:20.794Z,1013.67
2019-04-30T02:33:19.955Z,1013.62
2019-04-30T02:34:21.815Z,1013.61
2019-04-30T02:35:19.450Z,1013.58
2019-04-30T02:36:19.706Z,1013.64
2019-04-30T02:37:20.855Z,1013.65
2019-04-30T02:38:20.201Z,1013.63
2019-04-30T02:39:20.185Z,1013.67
2019-04-30T02:40:19.673Z,1013.64
2019-04-30T02:41:19.368Z,1013.68
2019-04-30T02:42:20.130Z,1013.66
2019-04-30T02:43:20.179Z,1013.68
2019-04-30T02:44:19.564Z,1013.65
2019-04-30T02:45:19.745Z,1013.65
2019-04-30T02:46:19.219Z,1013.61
2019-04-30T02:47:20.134Z,1013.62
2019-04-30T02:48:19.423Z,1013.67
2019-04-30T02:49:20.170Z,1013.61
2019-04-30T02:50:21.682Z,1013.64
2019-04-30T02:51:22.542Z,1013.63
2019-04-30T02:52:19.554Z,1013.66
2019-04-30T02:53:19.493Z,1013.67
2019-04-30T02:54:20.213Z,1013.61
2019-04-30T02:55:19.477Z,1013.65
2019-04-30T02:56:20.212Z,1013.66
2019-04-30T02:57:22.900Z,1013.67
2019-04-30T02:58:20.987Z,1013.70
2019-04-30T02:59:20.072Z,1013.68
2019-04-30T03:00:20.207Z,1013.73
2019-04-30T03:01:19.935Z,1013.67
2019-04-30T03:02:19.537Z,1013.70
2019-04-30T03:03:20.297Z,1013.71
2019-04-30T03:04:19.524Z,1013.71
2019-04-30T03:05:19.543Z,1013.71
2019-04-30T03:06:20.359Z,1013.71
2019-04-30T03:07:19.383Z,1013.69
2019-04-30T03:08:19.922Z,1013.67
2019-04-30T03:09:19.889Z,1013.72
2019-04-30T03:10:19.821Z,1013.71
2019-04-30T03:11:20.289Z,1013.82
2019-04-30T03:12:17.243Z,1013.80
2019-04-30T03:13:19.966Z,1013.82
2019-04-30T03:14:17.205Z,1013.77
2019-04-30T03:15:19.509Z,1013.82
2019-04-30T03:16:20.504Z,1013.86
2019-04-30T03:17:17.159Z,1013.84
2019-04-30T03:18:19.666Z,1013.84
2019-04-30T03:19:19.633Z,1013.79
2019-04-30T03:20:31.028Z,1013.83
2019-04-30T03:21:19.174Z,1013.87
2019-04-30T03:22:17.139Z,1013.88
2019-04-30T03:23:19.410Z,1013.86
2019-04-30T03:24:17.091Z,1013.86
2019-04-30T03:25:19.184Z,1013.85
2019-04-30T03:26:19.832Z,1013.84
2019-04-30T03:27:17.067Z,1013.85
2019-04-30T03:28:19.953Z,1013.82
2019-04-30T03:29:17.048Z,1013.85
2019-04-30T03:30:21.338Z,1013.78
2019-04-30T03:31:21.994Z,1013.83
2019-04-30T03:32:21.476Z,1013.83
2019-04-30T03:33:22.333Z,1013.80
2019-04-30T03:34:24.711Z,1013.85
2019-04-30T03:35:22.328Z,1013.84
2019-04-30T03:36:21.715Z,1013.85
2019-04-30T03:37:19.691Z,1013.88
2019-04-30T03:38:16.931Z,1013.91
2019-04-30T03:39:19.680Z,1013.94
2019-04-30T03:40:16.914Z,1013.90
2019-04-30T03:41:19.610Z,1013.84
2019-04-30T03:42:19.681Z,1013.87
2019-04-30T03:43:16.876Z,1013.86
2019-04-30T03:44:24.402Z,1013.88
2019-04-30T03:45:20.221Z,1013.92
2019-04-30T03:46:19.273Z,1013.87
2019-04-30T03:47:16.879Z,1013.87
2019-04-30T03:48:19.811Z,1013.88
2019-04-30T03:49:16.817Z,1013.86
2019-04-30T03:50:19.600Z,1013.90
2019-04-30T03:51:16.787Z,1013.84
2019-04-30T03:52:19.494Z,1013.91
2019-04-30T03:53:16.808Z,1013.90
2019-04-30T03:54:19.106Z,1013.87
2019-04-30T03:55:16.754Z,1013.89
2019-04-30T03:56:22.393Z,1013.91
2019-04-30T03:57:20.316Z,1013.94
2019-04-30T03:58:20.823Z,1013.93
2019-04-30T03:59:16.703Z,1013.90
2019-04-30T04:00:16.702Z,1013.95
2019-04-30T04:01:16.692Z,1013.98
2019-04-30T04:02:16.665Z,1014.02
2019-04-30T04:03:16.675Z,1013.98
2019-04-30T04:04:16.661Z,1013.97
2019-04-30T04:05:16.663Z,1013.97
2019-04-30T04:06:21.279Z,1014.00
2019-04-30T04:07:16.619Z,1014.00
2019-04-30T04:08:19.334Z,1014.02
2019-04-30T04:09:16.599Z,1014.01
2019-04-30T04:10:16.578Z,1014.03
2019-04-30T04:11:16.576Z,1014.09
2019-04-30T04:12:16.560Z,1014.07
2019-04-30T04:13:16.561Z,1014.04
2019-04-30T04:14:16.550Z,1014.08
2019-04-30T04:15:16.518Z,1014.09
2019-04-30T04:16:19.339Z,1014.11
2019-04-30T04:17:16.533Z,1014.13
2019-04-30T04:18:16.528Z,1014.12
2019-04-30T04:19:16.479Z,1014.13
2019-04-30T04:20:16.483Z,1014.10
2019-04-30T04:21:17.336Z,1014.12
2019-04-30T04:22:16.448Z,1014.18
2019-04-30T04:23:19.096Z,1014.13
2019-04-30T04:24:16.513Z,1014.15
2019-04-30T04:25:16.413Z,1014.19
2019-04-30T04:26:16.420Z,1014.17
2019-04-30T04:27:16.392Z,1014.16
2019-04-30T04:28:16.396Z,1014.14
2019-04-30T04:29:16.370Z,1014.14
2019-04-30T04:30:16.356Z,1014.17
2019-04-30T04:31:16.352Z,1014.20
2019-04-30T04:32:16.351Z,1014.18
2019-04-30T04:33:16.336Z,1014.16
2019-04-30T04:34:16.345Z,1014.18
2019-04-30T04:35:16.302Z,1014.23
2019-04-30T04:36:16.295Z,1014.24
2019-04-30T04:37:16.282Z,1014.22
2019-04-30T04:38:16.296Z,1014.21
2019-04-30T04:39:16.270Z,1014.22
2019-04-30T04:40:16.252Z,1014.21
2019-04-30T04:42:19.368Z,1014.22
2019-04-30T04:43:16.230Z,1014.23
2019-04-30T04:44:16.249Z,1014.29
2019-04-30T04:45:16.199Z,1014.29
2019-04-30T04:46:16.231Z,1014.25
2019-04-30T04:47:16.528Z,1014.24
2019-04-30T04:48:16.181Z,1014.29
2019-04-30T04:50:19.869Z,1014.31
2019-04-30T04:51:31.331Z,1014.35
2019-04-30T04:52:17.118Z,1014.32
2019-04-30T04:53:16.099Z,1014.37
2019-04-30T04:54:16.106Z,1014.38
2019-04-30T04:55:16.071Z,1014.38
2019-04-30T04:56:16.066Z,1014.29
2019-04-30T04:57:19.492Z,1014.33
2019-04-30T04:58:21.156Z,1014.36
2019-04-30T04:59:16.054Z,1014.32
2019-04-30T05:00:16.026Z,1014.27
2019-04-30T05:01:16.010Z,1014.31
2019-04-30T05:02:16.003Z,1014.32
2019-04-30T05:03:15.991Z,1014.31
2019-04-30T05:04:16.010Z,1014.30
2019-04-30T05:05:15.970Z,1014.27
2019-04-30T05:06:15.960Z,1014.30
2019-04-30T05:07:15.947Z,1014.31
2019-04-30T05:08:15.930Z,1014.34
2019-04-30T05:09:15.948Z,1014.32
2019-04-30T05:10:15.916Z,1014.27
2019-04-30T05:11:15.911Z,1014.32
2019-04-30T05:12:15.894Z,1014.34
2019-04-30T05:13:15.875Z,1014.35
2019-04-30T05:14:15.909Z,1014.33
2019-04-30T05:15:15.852Z,1014.36
2019-04-30T05:16:15.845Z,1014.36
2019-04-30T05:17:15.834Z,1014.39
2019-04-30T05:18:15.819Z,1014.41
2019-04-30T05:19:15.834Z,1014.41
2019-04-30T05:20:15.821Z,1014.40
2019-04-30T05:21:15.783Z,1014.42
2019-04-30T05:22:15.790Z,1014.40
2019-04-30T05:23:15.767Z,1014.39
2019-04-30T05:24:15.771Z,1014.38
2019-04-30T05:25:15.763Z,1014.38
2019-04-30T05:26:15.731Z,1014.43
2019-04-30T05:27:15.725Z,1014.43
2019-04-30T05:28:15.715Z,1014.41
2019-04-30T05:29:15.707Z,1014.44
2019-04-30T05:30:15.891Z,1014.42
2019-04-30T05:31:15.679Z,1014.44
2019-04-30T05:32:15.665Z,1014.50
2019-04-30T05:33:15.656Z,1014.51
2019-04-30T05:34:15.642Z,1014.52
2019-04-30T05:35:15.665Z,1014.54
2019-04-30T05:36:15.625Z,1014.55
2019-04-30T05:37:15.625Z,1014.56
2019-04-30T05:38:15.602Z,1014.54
2019-04-30T05:39:15.595Z,1014.51
2019-04-30T05:40:15.603Z,1014.51
2019-04-30T05:41:15.568Z,1014.53
2019-04-30T05:42:15.554Z,1014.49
2019-04-30T05:43:15.541Z,1014.48
2019-04-30T05:44:15.533Z,1014.52
2019-04-30T05:45:15.547Z,1014.51
2019-04-30T05:46:15.517Z,1014.50
2019-04-30T05:47:15.495Z,1014.51
2019-04-30T05:48:15.497Z,1014.57
2019-04-30T05:49:15.482Z,1014.50
2019-04-30T05:50:15.507Z,1014.54
2019-04-30T05:51:15.453Z,1014.51
2019-04-30T05:52:15.442Z,1014.51
2019-04-30T05:53:15.430Z,1014.46
2019-04-30T05:54:15.416Z,1014.50
2019-04-30T05:55:15.440Z,1014.51
2019-04-30T05:56:15.409Z,1014.49
2019-04-30T05:57:15.381Z,1014.46
2019-04-30T05:58:15.374Z,1014.46
2019-04-30T05:59:15.370Z,1014.45
2019-04-30T06:00:15.383Z,1014.46
2019-04-30T06:01:15.349Z,1014.47
2019-04-30T06:02:15.374Z,1014.46
2019-04-30T06:03:25.255Z,1014.47
2019-04-30T06:04:16.319Z,1014.47
2019-04-30T06:05:15.319Z,1014.50
2019-04-30T06:06:15.287Z,1014.46
2019-04-30T06:07:15.277Z,1014.48
2019-04-30T06:08:15.271Z,1014.47
2019-04-30T06:09:28.615Z,1014.51
2019-04-30T06:10:16.360Z,1014.50
2019-04-30T06:11:15.260Z,1014.52
2019-04-30T06:12:15.225Z,1014.59
2019-04-30T06:13:15.214Z,1014.56
2019-04-30T06:14:15.191Z,1014.58
2019-04-30T06:15:15.181Z,1014.53
2019-04-30T06:16:15.192Z,1014.50
2019-04-30T06:17:15.178Z,1014.54
2019-04-30T06:18:15.184Z,1014.53
2019-04-30T06:19:15.145Z,1014.52
2019-04-30T06:20:18.351Z,1014.57
2019-04-30T06:21:15.123Z,1014.60
2019-04-30T06:22:15.105Z,1014.57
2019-04-30T06:23:15.100Z,1014.62
2019-04-30T06:24:15.089Z,1014.57
2019-04-30T06:25:27.144Z,1014.59
2019-04-30T06:26:16.079Z,1014.60
2019-04-30T06:27:15.055Z,1014.58
2019-04-30T06:28:15.044Z,1014.57
2019-04-30T06:29:15.031Z,1014.57
2019-04-30T06:30:15.017Z,1014.62
2019-04-30T06:31:15.157Z,1014.57
2019-04-30T06:32:14.995Z,1014.59
2019-04-30T06:33:15.126Z,1014.56
2019-04-30T06:34:15.011Z,1014.52
2019-04-30T06:35:14.998Z,1014.58
2019-04-30T06:36:14.985Z,1014.53
2019-04-30T06:37:14.959Z,1014.53
2019-04-30T06:38:14.933Z,1014.52
2019-04-30T06:39:14.925Z,1014.57
2019-04-30T06:40:14.907Z,1014.52
2019-04-30T06:41:14.925Z,1014.49
2019-04-30T06:42:14.881Z,1014.56
2019-04-30T06:43:14.873Z,1014.52
2019-04-30T06:44:14.865Z,1014.52
2019-04-30T06:45:14.850Z,1014.60
2019-04-30T06:46:14.848Z,1014.63
2019-04-30T06:47:14.866Z,1014.60
2019-04-30T06:48:14.820Z,1014.58
2019-04-30T06:49:14.807Z,1014.55
2019-04-30T06:50:14.798Z,1014.56
2019-04-30T06:51:14.788Z,1014.57
2019-04-30T06:52:20.613Z,1014.54
2019-04-30T06:53:15.765Z,1014.60
2019-04-30T06:54:14.751Z,1014.60
2019-04-30T06:55:14.747Z,1014.58
2019-04-30T06:56:14.732Z,1014.54
2019-04-30T06:57:14.732Z,1014.56
2019-04-30T06:58:15.549Z,1014.60
2019-04-30T06:59:14.695Z,1014.59
2019-04-30T07:00:14.691Z,1014.59
2019-04-30T07:01:14.679Z,1014.60
2019-04-30T07:02:14.687Z,1014.53
2019-04-30T07:03:14.682Z,1014.56
2019-04-30T07:04:14.639Z,1014.59
2019-04-30T07:05:14.639Z,1014.61
2019-04-30T07:06:26.834Z,1014.59
2019-04-30T07:07:21.323Z,1014.54
2019-04-30T07:08:15.601Z,1014.55
2019-04-30T07:09:14.610Z,1014.57
2019-04-30T07:10:16.959Z,1014.59
2019-04-30T07:11:14.564Z,1014.56
2019-04-30T07:12:25.460Z,1014.62
2019-04-30T07:13:15.549Z,1014.58
2019-04-30T07:14:14.541Z,1014.60
2019-04-30T07:15:14.521Z,1014.69
2019-04-30T07:16:14.511Z,1014.57
2019-04-30T07:17:14.550Z,1014.62
2019-04-30T07:18:14.487Z,1014.65
2019-04-30T07:19:14.477Z,1014.62
2019-04-30T07:20:14.463Z,1014.57
2019-04-30T07:21:14.455Z,1014.60
2019-04-30T07:22:14.464Z,1014.61
2019-04-30T07:23:14.432Z,1014.62
2019-04-30T07:24:14.422Z,1014.64
2019-04-30T07:25:14.439Z,1014.59
2019-04-30T07:26:18.896Z,1014.61
2019-04-30T07:27:15.852Z,1014.57
2019-04-30T07:28:14.396Z,1014.58
2019-04-30T07:29:14.359Z,1014.58
2019-04-30T07:30:14.352Z,1014.53
2019-04-30T07:31:14.915Z,1014.55
2019-04-30T07:32:14.369Z,1014.53
2019-04-30T07:33:14.315Z,1014.50
2019-04-30T07:34:14.316Z,1014.50
2019-04-30T07:35:14.295Z,1014.51
2019-04-30T07:36:14.290Z,1014.52
2019-04-30T07:37:20.435Z,1014.48
2019-04-30T07:38:15.290Z,1014.55
2019-04-30T07:39:14.253Z,1014.52
2019-04-30T07:40:14.240Z,1014.55
2019-04-30T07:41:14.226Z,1014.51
2019-04-30T07:42:14.234Z,1014.54
2019-04-30T07:43:14.207Z,1014.57
2019-04-30T07:44:30.026Z,1014.56
2019-04-30T07:45:15.183Z,1014.60
2019-04-30T07:46:14.180Z,1014.62
2019-04-30T07:47:14.213Z,1014.61
2019-04-30T07:48:14.162Z,1014.61
2019-04-30T07:49:14.135Z,1014.59
2019-04-30T07:50:14.599Z,1014.58
2019-04-30T07:51:14.772Z,1014.61
2019-04-30T07:52:14.845Z,1014.61
2019-04-30T07:53:14.136Z,1014.58
2019-04-30T07:54:14.087Z,1014.57
2019-04-30T07:55:14.073Z,1014.60
2019-04-30T07:56:25.856Z,1014.59
2019-04-30T07:57:15.070Z,1014.61
2019-04-30T07:58:14.065Z,1014.55
2019-04-30T07:59:14.041Z,1014.61
2019-04-30T08:00:14.013Z,1014.63
2019-04-30T08:01:14.016Z,1014.59
2019-04-30T08:02:14.885Z,1014.66
2019-04-30T08:03:14.201Z,1014.58
2019-04-30T08:04:13.991Z,1014.61
2019-04-30T08:05:13.979Z,1014.63
2019-04-30T08:06:13.982Z,1014.62
2019-04-30T08:07:13.946Z,1014.55
2019-04-30T08:08:21.564Z,1014.59
2019-04-30T08:09:14.930Z,1014.58
2019-04-30T08:10:13.915Z,1014.54
2019-04-30T08:11:23.824Z,1014.59
2019-04-30T08:12:22.261Z,1014.60
2019-04-30T08:13:15.950Z,1014.58
2019-04-30T08:14:13.898Z,1014.62
2019-04-30T08:15:13.867Z,1014.62
2019-04-30T08:16:13.849Z,1014.63
2019-04-30T08:17:13.827Z,1014.68
2019-04-30T08:18:13.827Z,1014.63
2019-04-30T08:19:14.335Z,1014.59
2019-04-30T08:20:15.882Z,1014.61
2019-04-30T08:21:13.802Z,1014.60
2019-04-30T08:22:13.769Z,1014.64
2019-04-30T08:23:30.576Z,1014.64
2019-04-30T08:24:14.753Z,1014.66
2019-04-30T08:25:13.739Z,1014.61
2019-04-30T08:26:13.729Z,1014.69
2019-04-30T08:27:13.725Z,1014.73
2019-04-30T08:28:13.700Z,1014.68
2019-04-30T08:29:13.720Z,1014.68
2019-04-30T08:30:23.923Z,1014.75
2019-04-30T08:31:15.664Z,1014.73
2019-04-30T08:32:13.673Z,1014.74
2019-04-30T08:33:13.645Z,1014.67
2019-04-30T08:34:13.694Z,1014.63
2019-04-30T08:35:13.624Z,1014.69
2019-04-30T08:36:13.632Z,1014.68
2019-04-30T08:37:17.706Z,1014.68
2019-04-30T08:38:14.593Z,1014.67
2019-04-30T08:39:13.617Z,1014.61
2019-04-30T08:40:13.566Z,1014.60
2019-04-30T08:41:13.571Z,1014.61
2019-04-30T08:42:13.541Z,1014.60
2019-04-30T08:43:13.546Z,1014.63
2019-04-30T08:44:13.545Z,1014.62
2019-04-30T08:45:13.510Z,1014.61
2019-04-30T08:46:13.502Z,1014.62
2019-04-30T08:47:13.498Z,1014.59
2019-04-30T08:48:13.482Z,1014.64
2019-04-30T08:49:13.739Z,1014.59
2019-04-30T08:50:13.462Z,1014.56
2019-04-30T08:51:14.173Z,1014.63
2019-04-30T08:52:13.443Z,1014.59
2019-04-30T08:53:26.276Z,1014.64
2019-04-30T08:54:14.440Z,1014.63
2019-04-30T08:55:16.976Z,1014.58
2019-04-30T08:56:13.404Z,1014.65
2019-04-30T08:57:13.383Z,1014.59
2019-04-30T08:58:15.194Z,1014.52
2019-04-30T08:59:13.383Z,1014.60
2019-04-30T09:00:15.104Z,1014.54
2019-04-30T09:01:13.334Z,1014.58
2019-04-30T09:02:16.360Z,1014.58
2019-04-30T09:03:13.309Z,1014.54
2019-04-30T09:04:13.317Z,1014.55
2019-04-30T09:05:13.293Z,1014.56
2019-04-30T09:06:13.284Z,1014.55
2019-04-30T09:07:13.270Z,1014.56
2019-04-30T09:08:13.281Z,1014.53
2019-04-30T09:09:13.243Z,1014.56
2019-04-30T09:10:13.255Z,1014.56
2019-04-30T09:11:22.618Z,1014.57
2019-04-30T09:12:14.225Z,1014.56
2019-04-30T09:13:13.232Z,1014.50
2019-04-30T09:14:13.187Z,1014.53
2019-04-30T09:15:13.249Z,1014.53
2019-04-30T09:16:13.165Z,1014.50
2019-04-30T09:17:13.167Z,1014.53
2019-04-30T09:18:13.159Z,1014.47
2019-04-30T09:19:13.144Z,1014.48
2019-04-30T09:20:13.150Z,1014.43
2019-04-30T09:21:13.121Z,1014.41
2019-04-30T09:22:15.285Z,1014.46
2019-04-30T09:23:13.095Z,1014.38
2019-04-30T09:24:13.098Z,1014.40
2019-04-30T09:25:13.113Z,1014.42
2019-04-30T09:26:13.067Z,1014.45
2019-04-30T09:27:13.045Z,1014.47
2019-04-30T09:28:13.050Z,1014.46
2019-04-30T09:29:13.025Z,1014.48
2019-04-30T09:30:13.035Z,1014.50
2019-04-30T09:31:13.022Z,1014.49
2019-04-30T09:32:12.991Z,1014.56
2019-04-30T09:33:12.984Z,1014.50
2019-04-30T09:34:17.172Z,1014.53
2019-04-30T09:35:13.957Z,1014.53
2019-04-30T09:36:12.987Z,1014.54
2019-04-30T09:37:12.934Z,1014.57
2019-04-30T09:38:12.917Z,1014.58
2019-04-30T09:39:12.919Z,1014.54
2019-04-30T09:40:17.912Z,1014.59
2019-04-30T09:41:14.390Z,1014.52
2019-04-30T09:42:12.875Z,1014.49
2019-04-30T09:43:12.874Z,1014.54
2019-04-30T09:44:13.818Z,1014.53
2019-04-30T09:45:12.848Z,1014.52
2019-04-30T09:46:22.002Z,1014.49
2019-04-30T09:47:13.824Z,1014.46
2019-04-30T09:48:12.844Z,1014.49
2019-04-30T09:49:12.817Z,1014.52
2019-04-30T09:50:12.793Z,1014.50
2019-04-30T09:51:13.301Z,1014.50
2019-04-30T09:52:12.803Z,1014.47
2019-04-30T09:53:13.093Z,1014.45
2019-04-30T09:54:13.562Z,1014.43
2019-04-30T09:55:12.757Z,1014.41
2019-04-30T09:56:12.855Z,1014.39
2019-04-30T09:57:12.737Z,1014.38
2019-04-30T09:58:16.975Z,1014.45
2019-04-30T09:59:13.687Z,1014.36
2019-04-30T10:00:12.680Z,1014.38
2019-04-30T10:01:12.663Z,1014.40
2019-04-30T10:02:12.656Z,1014.41
2019-04-30T10:03:12.986Z,1014.29
2019-04-30T10:04:13.063Z,1014.29
2019-04-30T10:05:13.266Z,1014.29
2019-04-30T10:06:12.610Z,1014.30
2019-04-30T10:07:12.636Z,1014.38
2019-04-30T10:08:12.612Z,1014.46
2019-04-30T10:09:12.584Z,1014.43
2019-04-30T10:10:12.578Z,1014.45
2019-04-30T10:11:12.551Z,1014.51
2019-04-30T10:12:12.549Z,1014.38
2019-04-30T10:13:12.553Z,1014.42
2019-04-30T10:14:12.527Z,1014.40
2019-04-30T10:15:12.510Z,1014.39
2019-04-30T10:16:12.501Z,1014.38
2019-04-30T10:17:12.501Z,1014.43
2019-04-30T10:18:12.517Z,1014.40
2019-04-30T10:19:14.904Z,1014.41
2019-04-30T10:20:12.458Z,1014.34
2019-04-30T10:21:12.447Z,1014.36
2019-04-30T10:22:12.433Z,1014.36
2019-04-30T10:23:12.451Z,1014.34
2019-04-30T10:24:15.645Z,1014.38
2019-04-30T10:25:12.411Z,1014.31
2019-04-30T10:26:12.391Z,1014.39
2019-04-30T10:27:13.366Z,1014.33
2019-04-30T10:28:12.400Z,1014.32
2019-04-30T10:29:12.367Z,1014.33
2019-04-30T10:30:12.361Z,1014.41
2019-04-30T10:31:12.368Z,1014.34
2019-04-30T10:32:12.335Z,1014.35
2019-04-30T10:33:12.335Z,1014.30
2019-04-30T10:34:12.375Z,1014.37
2019-04-30T10:35:12.297Z,1014.29
2019-04-30T10:36:12.294Z,1014.34
2019-04-30T10:37:12.275Z,1014.33
2019-04-30T10:38:12.265Z,1014.33
2019-04-30T10:39:12.307Z,1014.33
2019-04-30T10:40:12.275Z,1014.37
2019-04-30T10:41:12.235Z,1014.39
2019-04-30T10:42:12.226Z,1014.34
2019-04-30T10:43:12.261Z,1014.34
2019-04-30T10:44:12.252Z,1014.37
2019-04-30T10:45:12.199Z,1014.33
2019-04-30T10:46:12.200Z,1014.38
2019-04-30T10:47:12.176Z,1014.47
2019-04-30T10:48:12.178Z,1014.43
2019-04-30T10:49:12.205Z,1014.46
2019-04-30T10:50:12.143Z,1014.42
2019-04-30T10:51:12.134Z,1014.42
2019-04-30T10:52:12.133Z,1014.44
2019-04-30T10:53:12.525Z,1014.47
2019-04-30T10:54:23.210Z,1014.41
2019-04-30T10:55:13.093Z,1014.39
2019-04-30T10:56:12.163Z,1014.43
2019-04-30T10:57:12.083Z,1014.32
2019-04-30T10:58:12.079Z,1014.33
2019-04-30T10:59:12.085Z,1014.34
2019-04-30T11:00:12.071Z,1014.34
2019-04-30T11:01:12.055Z,1014.32
2019-04-30T11:02:12.037Z,1014.28
2019-04-30T11:03:19.925Z,1014.26
2019-04-30T11:04:13.063Z,1014.22
2019-04-30T11:05:12.034Z,1014.24
2019-04-30T11:06:12.055Z,1014.27
2019-04-30T11:07:12.051Z,1014.27
2019-04-30T11:08:12.851Z,1014.25
2019-04-30T11:09:12.119Z,1014.22
2019-04-30T11:10:11.986Z,1014.24
2019-04-30T11:11:11.991Z,1014.20
2019-04-30T11:12:11.981Z,1014.26
2019-04-30T11:13:11.973Z,1014.27
2019-04-30T11:15:21.009Z,1014.25
2019-04-30T11:16:20.974Z,1014.24
2019-04-30T11:17:21.195Z,1014.21
2019-04-30T11:18:21.174Z,1014.15
2019-04-30T11:19:21.180Z,1014.15
2019-04-30T11:20:22.237Z,1014.13
2019-04-30T11:21:20.993Z,1014.14
2019-04-30T11:22:21.007Z,1014.16
2019-04-30T11:23:21.338Z,1014.13
2019-04-30T11:24:21.179Z,1014.14
2019-04-30T11:25:21.357Z,1014.18
2019-04-30T11:26:21.393Z,1014.20
2019-04-30T11:27:21.642Z,1014.15
2019-04-30T11:28:21.399Z,1014.23
2019-04-30T11:29:23.060Z,1014.27
2019-04-30T11:30:23.836Z,1014.27
2019-04-30T11:31:21.031Z,1014.21
2019-04-30T11:32:21.086Z,1014.26
2019-04-30T11:33:21.043Z,1014.29
2019-04-30T11:34:20.879Z,1014.23
2019-04-30T11:35:20.838Z,1014.32
2019-04-30T11:36:20.816Z,1014.26
2019-04-30T11:37:20.816Z,1014.18
2019-04-30T11:38:20.806Z,1014.15
2019-04-30T11:39:20.799Z,1014.17
2019-04-30T11:40:31.196Z,1014.14
2019-04-30T11:41:29.993Z,1014.06
2019-04-30T11:42:21.772Z,1014.06
2019-04-30T11:43:20.759Z,1014.08
2019-04-30T11:44:30.367Z,1014.08
2019-04-30T11:45:21.787Z,1014.01
2019-04-30T11:46:20.735Z,1014.09
2019-04-30T11:47:20.742Z,1014.03
2019-04-30T11:48:20.744Z,1014.06
2019-04-30T11:49:20.716Z,1014.04
2019-04-30T11:50:20.738Z,1014.05
2019-04-30T11:51:20.708Z,1014.07
2019-04-30T11:52:20.691Z,1014.01
2019-04-30T11:53:25.320Z,1014.01
2019-04-30T11:54:21.688Z,1014.06
2019-04-30T11:55:20.710Z,1014.04
2019-04-30T11:56:20.678Z,1014.07
2019-04-30T11:57:20.659Z,1013.99
2019-04-30T11:58:21.603Z,1013.97
2019-04-30T11:59:20.646Z,1013.96
2019-04-30T12:00:20.651Z,1014.03
2019-04-30T12:01:20.667Z,1013.97
2019-04-30T12:02:21.191Z,1014.01
2019-04-30T12:03:20.610Z,1013.94
2019-04-30T12:04:20.607Z,1013.93
2019-04-30T12:05:20.874Z,1013.94
2019-04-30T12:06:20.587Z,1014.00
2019-04-30T12:07:20.577Z,1014.00
2019-04-30T12:08:20.565Z,1014.00